Piper Inness — WDC3984 — position and weather

sailwx.info

Track history (hours):
 
Tides and Currents Weather Stations Pressure Air Temp Water Temp Dewpoint Dewpoint Depression Visibility Wind Speed Wind Dir Waves Ship Positions

Piper Inness

Owner: Foss Maritime Co, Seattle, WA. More information available from US FCC via Universal Licensing System and Coast Guard Vessel Documentation Center.

Last reported at 2016-Jun-29 06:32 UTC. Time now 2016-Jun-29 14:45 UTC.
Position N 33°46' W 118°13'.

; draft 2 m.

Type: Other ship. MMSI: 367017440.

Date/timePositionNaut miles runAvg speedWind from/ knotsBaromVisibWave heightAir tempDewpointWater temp
2016-Jun-29 06:32N 33°46' W 118°13'0 0.0
2016-Jun-29 01:07N 33°46' W 118°13'0 0.0
2016-Jun-29 00:33N 33°46' W 118°13'0 0.0
2016-Jun-28 23:33N 33°46' W 118°13'0 0.0
2016-Jun-28 22:33N 33°46' W 118°13'0 0.0
2016-Jun-28 21:33N 33°46' W 118°13'0 0.0
2016-Jun-28 20:33N 33°46' W 118°13'0 0.0
2016-Jun-28 19:33N 33°46' W 118°13'0 0.0
2016-Jun-28 18:33N 33°46' W 118°13'0 0.0
2016-Jun-28 17:33N 33°46' W 118°13'0 0.0
2016-Jun-28 16:33N 33°46' W 118°13'0 0.0
2016-Jun-28 15:33N 33°46' W 118°13'0 0.0
2016-Jun-28 14:33N 33°46' W 118°13'0 0.0
2016-Jun-28 13:33N 33°46' W 118°13'0 0.0
2016-Jun-28 12:33N 33°46' W 118°13'0 0.0
2016-Jun-28 11:33N 33°46' W 118°13'0 0.0
2016-Jun-28 10:33N 33°46' W 118°13'0 0.0
2016-Jun-28 09:33N 33°46' W 118°13'0 0.0
2016-Jun-28 08:33N 33°46' W 118°13'0 0.0
2016-Jun-28 07:33N 33°46' W 118°13'0 0.0
2016-Jun-28 06:33N 33°46' W 118°13'0 0.0
2016-Jun-28 04:33N 33°46' W 118°13'0 0.0
2016-Jun-28 03:33N 33°46' W 118°13'0 0.0
2016-Jun-28 02:33N 33°46' W 118°13'0 0.0
2016-Jun-28 01:33N 33°46' W 118°13'0 0.0
2016-Jun-28 00:32N 33°46' W 118°13'0 0.0
2016-Jun-27 23:33N 33°46' W 118°13'0 0.0
2016-Jun-27 22:33N 33°46' W 118°13'0 0.0
2016-Jun-27 21:34N 33°46' W 118°13'0 0.0
2016-Jun-27 20:34N 33°46' W 118°13'0 0.0
2016-Jun-27 19:33N 33°46' W 118°13'0 0.0
2016-Jun-27 18:33N 33°46' W 118°13'0 0.0
2016-Jun-27 17:33N 33°46' W 118°13'0 0.0
2016-Jun-27 16:33N 33°46' W 118°13'0 0.0
2016-Jun-27 15:33N 33°46' W 118°13'0 0.0
2016-Jun-27 14:33N 33°46' W 118°13'0 0.0
2016-Jun-27 13:33N 33°46' W 118°13'0 0.0
2016-Jun-27 12:33N 33°46' W 118°13'0 0.0
2016-Jun-27 11:33N 33°46' W 118°13'0 0.0
2016-Jun-27 10:33N 33°46' W 118°13'0 0.0
2016-Jun-27 09:33N 33°46' W 118°13'0 0.0
2016-Jun-27 08:33N 33°46' W 118°13'0 0.0
2016-Jun-27 07:34N 33°46' W 118°13'0 0.0
2016-Jun-27 06:33N 33°46' W 118°13'0 0.0
2016-Jun-27 05:33N 33°46' W 118°13'0 0.0
2016-Jun-27 04:33N 33°46' W 118°13'0 0.0
2016-Jun-27 03:33N 33°46' W 118°13'0 0.0
2016-Jun-27 02:33N 33°46' W 118°13'0 0.0
2016-Jun-27 01:33N 33°46' W 118°13'0 0.0
2016-Jun-27 00:33N 33°46' W 118°13'0 0.0
2016-Jun-26 23:33N 33°46' W 118°13'0 0.0
2016-Jun-26 22:33N 33°46' W 118°13'0 0.0
2016-Jun-26 21:33N 33°46' W 118°13'0 0.0
2016-Jun-26 20:33N 33°46' W 118°13'0 0.0
2016-Jun-26 19:33N 33°46' W 118°13'0 0.0
2016-Jun-26 18:33N 33°46' W 118°13'0 0.0
2016-Jun-26 17:33N 33°46' W 118°13'0 0.0
2016-Jun-26 16:33N 33°46' W 118°13'0 0.0
2016-Jun-26 15:33N 33°46' W 118°13'1 1.2
2016-Jun-26 14:34N 33°45' W 118°13'1615.5
2016-Jun-26 13:30N 33°30' W 118°04'1818.0
2016-Jun-26 12:29N 33°13' W 117°56'8 8.4
2016-Jun-26 11:28N 33°06' W 117°52'1 1.4
2016-Jun-26 10:33N 33°04' W 117°51'1 0.8
2016-Jun-26 09:33N 33°04' W 117°52'1 0.8
2016-Jun-26 08:32N 33°03' W 117°51'1 1.1
2016-Jun-26 07:33N 33°03' W 117°51'1 0.7
2016-Jun-26 06:33N 33°02' W 117°50'1 1.4
2016-Jun-26 05:33N 33°01' W 117°50'1 0.5
2016-Jun-26 04:32N 33°00' W 117°50'1 0.7
2016-Jun-26 03:33N 32°60' W 117°49'2 2.2
2016-Jun-26 02:33N 32°57' W 117°48'1 1.4
2016-Jun-26 01:33N 32°56' W 117°48'0 0.1
2016-Jun-26 00:33N 32°56' W 117°48'0 0.5
2016-Jun-25 23:33N 32°56' W 117°48'0 0.3
2016-Jun-25 22:33N 32°55' W 117°47'0 0.4
2016-Jun-25 21:33N 32°56' W 117°48'2 1.5
2016-Jun-25 20:33N 32°54' W 117°47'1 0.5
2016-Jun-25 19:33N 32°55' W 117°47'1 1.0
2016-Jun-25 18:32N 32°54' W 117°47'0 0.3
2016-Jun-25 17:33N 32°53' W 117°47'1 1.2
2016-Jun-25 16:33N 32°52' W 117°47'2 2.2
2016-Jun-25 15:33N 32°50' W 117°47'5 4.7
2016-Jun-25 14:33N 32°46' W 117°44'4 4.4
2016-Jun-25 13:33N 32°42' W 117°42'0 0.4
2016-Jun-25 12:33N 32°42' W 117°42'7 6.7
2016-Jun-25 11:33N 32°48' W 117°45'7 7.0
2016-Jun-25 10:33N 32°55' W 117°50'7 7.0
2016-Jun-25 09:33N 33°01' W 117°54'11 5.0
2016-Jun-25 07:26N 33°10' W 117°59'1 0.6
2016-Jun-25 06:26N 33°10' W 117°58'3 3.8
2016-Jun-25 05:32N 33°13' W 117°59'3316.7
2016-Jun-25 03:33N 33°44' W 118°12'2 1.8
2016-Jun-25 02:33N 33°46' W 118°13'1 0.0
2016-Jun-23 14:33N 33°46' W 118°13'0 0.4
2016-Jun-23 13:33N 33°46' W 118°13'1413.4
2016-Jun-23 12:32N 33°34' W 118°06'1717.4
2016-Jun-23 11:33N 33°18' W 117°58'1211.5
2016-Jun-23 10:33N 33°07' W 117°54'2 2.2
2016-Jun-23 09:33N 33°06' W 117°52'1 1.0
2016-Jun-23 08:33N 33°05' W 117°52'1 1.0
2016-Jun-23 07:22N 33°04' W 117°51'2 0.9
2016-Jun-23 05:33N 33°02' W 117°50'1 1.2
2016-Jun-23 04:33N 33°01' W 117°49'0 0.5
2016-Jun-23 03:33N 33°01' W 117°49'1 1.5
2016-Jun-23 02:33N 33°00' W 117°48'2 2.2
2016-Jun-23 01:34N 32°58' W 117°46'0 0.2
2016-Jun-23 00:33N 32°58' W 117°46'1 0.7
2016-Jun-22 23:33N 32°57' W 117°46'1 0.7
2016-Jun-22 22:33N 32°57' W 117°46'1 0.6
2016-Jun-22 21:34N 32°57' W 117°45'1 0.5
2016-Jun-22 20:34N 32°56' W 117°44'2 1.6
2016-Jun-22 19:34N 32°55' W 117°43'1 0.9
2016-Jun-22 18:33N 32°56' W 117°44'0 0.4
2016-Jun-22 17:33N 32°55' W 117°44'2 1.7
2016-Jun-22 16:33N 32°57' W 117°45'1 1.2
2016-Jun-22 15:34N 32°58' W 117°45'1 1.2
2016-Jun-22 14:33N 32°59' W 117°45'1 1.5
2016-Jun-22 13:33N 32°59' W 117°47'1 1.0
2016-Jun-22 12:33N 32°59' W 117°48'1 0.5
2016-Jun-22 11:32N 32°59' W 117°48'1 1.0
2016-Jun-22 10:33N 32°60' W 117°49'1 0.6
2016-Jun-22 09:33N 32°59' W 117°50'0 0.5
2016-Jun-22 08:33N 32°59' W 117°50'1 0.5
2016-Jun-22 07:33N 32°59' W 117°50'1 1.2
2016-Jun-22 06:33N 32°60' W 117°51'4 3.8
2016-Jun-22 05:33N 33°03' W 117°53'4 4.2
2016-Jun-22 04:33N 33°07' W 117°55'2 1.8
2016-Jun-22 03:32N 33°09' W 117°55'1 0.7
2016-Jun-22 02:33N 33°09' W 117°54'1010.1
2016-Jun-22 01:33N 33°18' W 117°59'1817.6
2016-Jun-22 00:32N 33°35' W 118°05'1111.0
2016-Jun-21 23:33N 33°44' W 118°12'2 2.1
2016-Jun-21 22:34N 33°46' W 118°13'0 0.0
2016-Jun-21 21:34N 33°46' W 118°13'0 0.0
2016-Jun-21 20:34N 33°46' W 118°13'0 0.0
2016-Jun-21 19:34N 33°46' W 118°13'0 0.0
2016-Jun-21 18:34N 33°46' W 118°13'0 0.0
2016-Jun-21 17:34N 33°46' W 118°13'2 1.8
2016-Jun-21 16:34N 33°44' W 118°13'3 2.5
2016-Jun-21 15:33N 33°44' W 118°10'3 3.5
2016-Jun-21 14:34N 33°46' W 118°13'0 0.0
2016-Jun-21 13:32N 33°46' W 118°13'0 0.0
2016-Jun-21 12:32N 33°46' W 118°13'0 0.0
2016-Jun-21 11:32N 33°46' W 118°13'0 0.0
2016-Jun-21 10:32N 33°46' W 118°13'0 0.0
2016-Jun-21 09:32N 33°46' W 118°13'0 0.0
2016-Jun-21 08:32N 33°46' W 118°13'0 0.0
2016-Jun-21 07:32N 33°46' W 118°13'0 0.0
2016-Jun-21 06:32N 33°46' W 118°13'0 0.0
2016-Jun-21 04:32N 33°46' W 118°13'0 0.0
2016-Jun-21 03:32N 33°46' W 118°13'0 0.0
2016-Jun-21 02:32N 33°46' W 118°13'0 0.0
2016-Jun-21 01:32N 33°46' W 118°13'0 0.3
2016-Jun-21 00:33N 33°46' W 118°13'0 0.4
2016-Jun-20 23:33N 33°46' W 118°13'0 0.4
2016-Jun-20 22:34N 33°46' W 118°13'0 0.5
2016-Jun-20 21:33N 33°46' W 118°13'0 0.0
2016-Jun-20 20:33N 33°46' W 118°13'0 0.0
2016-Jun-20 19:33N 33°46' W 118°13'0 0.0
2016-Jun-20 18:33N 33°46' W 118°13'0 0.0
2016-Jun-20 17:33N 33°46' W 118°13'0 0.0
2016-Jun-20 16:33N 33°46' W 118°13'0 0.0
2016-Jun-20 15:33N 33°46' W 118°13'0 0.0
2016-Jun-20 14:33N 33°46' W 118°13'0 0.0
2016-Jun-20 13:33N 33°46' W 118°13'0 0.0
2016-Jun-20 12:33N 33°46' W 118°13'0 0.0
2016-Jun-20 11:33N 33°46' W 118°13'0 0.0
2016-Jun-20 10:33N 33°46' W 118°13'0 0.0
2016-Jun-20 09:33N 33°46' W 118°13'0 0.0
2016-Jun-20 08:34N 33°46' W 118°13'1 0.6
2016-Jun-20 07:34N 33°46' W 118°13'1313.3
2016-Jun-20 06:33N 33°34' W 118°06'1717.0
2016-Jun-20 05:33N 33°18' W 117°59'1514.8
2016-Jun-20 04:33N 33°04' W 117°52'1 0.9
2016-Jun-20 03:33N 33°04' W 117°51'3 2.6
2016-Jun-20 02:34N 33°02' W 117°50'1 1.3
2016-Jun-20 01:33N 33°00' W 117°50'3 2.9
2016-Jun-20 00:33N 33°00' W 117°47'0 0.3
2016-Jun-19 23:33N 32°60' W 117°46'0 0.4
2016-Jun-19 22:33N 32°60' W 117°47'1 1.4
2016-Jun-19 21:33N 32°59' W 117°45'1 1.0
2016-Jun-19 20:33N 32°59' W 117°44'1 1.4
2016-Jun-19 19:33N 32°58' W 117°46'2 2.3
2016-Jun-19 18:34N 32°58' W 117°43'1 1.2
2016-Jun-19 17:33N 32°58' W 117°45'1 0.9
2016-Jun-19 16:33N 32°58' W 117°46'2 1.9
2016-Jun-19 15:33N 32°56' W 117°45'2 2.1
2016-Jun-19 14:33N 32°58' W 117°47'1 1.2
2016-Jun-19 13:33N 32°56' W 117°47'3 2.6
2016-Jun-19 12:34N 32°57' W 117°50'1 0.6
2016-Jun-19 11:34N 32°57' W 117°49'2 1.6
2016-Jun-19 10:33N 32°58' W 117°51'2 2.3
2016-Jun-19 09:33N 32°57' W 117°49'3 2.8
2016-Jun-19 08:33N 32°58' W 117°51'0 0.5
2016-Jun-19 07:33N 32°58' W 117°51'3 3.1
2016-Jun-19 06:33N 33°01' W 117°53'  
Track history (hours):
 
Tides and Currents Weather Stations Pressure Air Temp Water Temp Dewpoint Dewpoint Depression Visibility Wind Speed Wind Dir Waves Ship Positions

Piper Inness

Owner: Foss Maritime Co, Seattle, WA. More information available from US FCC via Universal Licensing System and Coast Guard Vessel Documentation Center.

Last reported at 2016-Jun-29 06:32 UTC. Time now 2016-Jun-29 14:45 UTC.
Position N 33°46' W 118°13'.

; draft 2 m.

Type: Other ship. MMSI: 367017440.

Date/timePositionNaut miles runAvg speedWind from/ knotsBaromVisibWave heightAir tempDewpointWater temp
2016-Jun-29 06:32N 33°46' W 118°13'0 0.0
2016-Jun-29 01:07N 33°46' W 118°13'0 0.0
2016-Jun-29 00:33N 33°46' W 118°13'0 0.0
2016-Jun-28 23:33N 33°46' W 118°13'0 0.0
2016-Jun-28 22:33N 33°46' W 118°13'0 0.0
2016-Jun-28 21:33N 33°46' W 118°13'0 0.0
2016-Jun-28 20:33N 33°46' W 118°13'0 0.0
2016-Jun-28 19:33N 33°46' W 118°13'0 0.0
2016-Jun-28 18:33N 33°46' W 118°13'0 0.0
2016-Jun-28 17:33N 33°46' W 118°13'0 0.0
2016-Jun-28 16:33N 33°46' W 118°13'0 0.0
2016-Jun-28 15:33N 33°46' W 118°13'0 0.0
2016-Jun-28 14:33N 33°46' W 118°13'0 0.0
2016-Jun-28 13:33N 33°46' W 118°13'0 0.0
2016-Jun-28 12:33N 33°46' W 118°13'0 0.0
2016-Jun-28 11:33N 33°46' W 118°13'0 0.0
2016-Jun-28 10:33N 33°46' W 118°13'0 0.0
2016-Jun-28 09:33N 33°46' W 118°13'0 0.0
2016-Jun-28 08:33N 33°46' W 118°13'0 0.0
2016-Jun-28 07:33N 33°46' W 118°13'0 0.0
2016-Jun-28 06:33N 33°46' W 118°13'0 0.0
2016-Jun-28 04:33N 33°46' W 118°13'0 0.0
2016-Jun-28 03:33N 33°46' W 118°13'0 0.0
2016-Jun-28 02:33N 33°46' W 118°13'0 0.0
2016-Jun-28 01:33N 33°46' W 118°13'0 0.0
2016-Jun-28 00:32N 33°46' W 118°13'0 0.0
2016-Jun-27 23:33N 33°46' W 118°13'0 0.0
2016-Jun-27 22:33N 33°46' W 118°13'0 0.0
2016-Jun-27 21:34N 33°46' W 118°13'0 0.0
2016-Jun-27 20:34N 33°46' W 118°13'0 0.0
2016-Jun-27 19:33N 33°46' W 118°13'0 0.0
2016-Jun-27 18:33N 33°46' W 118°13'0 0.0
2016-Jun-27 17:33N 33°46' W 118°13'0 0.0
2016-Jun-27 16:33N 33°46' W 118°13'0 0.0
2016-Jun-27 15:33N 33°46' W 118°13'0 0.0
2016-Jun-27 14:33N 33°46' W 118°13'0 0.0
2016-Jun-27 13:33N 33°46' W 118°13'0 0.0
2016-Jun-27 12:33N 33°46' W 118°13'0 0.0
2016-Jun-27 11:33N 33°46' W 118°13'0 0.0
2016-Jun-27 10:33N 33°46' W 118°13'0 0.0
2016-Jun-27 09:33N 33°46' W 118°13'0 0.0
2016-Jun-27 08:33N 33°46' W 118°13'0 0.0
2016-Jun-27 07:34N 33°46' W 118°13'0 0.0
2016-Jun-27 06:33N 33°46' W 118°13'0 0.0
2016-Jun-27 05:33N 33°46' W 118°13'0 0.0
2016-Jun-27 04:33N 33°46' W 118°13'0 0.0
2016-Jun-27 03:33N 33°46' W 118°13'0 0.0
2016-Jun-27 02:33N 33°46' W 118°13'0 0.0
2016-Jun-27 01:33N 33°46' W 118°13'0 0.0
2016-Jun-27 00:33N 33°46' W 118°13'0 0.0
2016-Jun-26 23:33N 33°46' W 118°13'0 0.0
2016-Jun-26 22:33N 33°46' W 118°13'0 0.0
2016-Jun-26 21:33N 33°46' W 118°13'0 0.0
2016-Jun-26 20:33N 33°46' W 118°13'0 0.0
2016-Jun-26 19:33N 33°46' W 118°13'0 0.0
2016-Jun-26 18:33N 33°46' W 118°13'0 0.0
2016-Jun-26 17:33N 33°46' W 118°13'0 0.0
2016-Jun-26 16:33N 33°46' W 118°13'0 0.0
2016-Jun-26 15:33N 33°46' W 118°13'1 1.2
2016-Jun-26 14:34N 33°45' W 118°13'1615.5
2016-Jun-26 13:30N 33°30' W 118°04'1818.0
2016-Jun-26 12:29N 33°13' W 117°56'8 8.4
2016-Jun-26 11:28N 33°06' W 117°52'1 1.4
2016-Jun-26 10:33N 33°04' W 117°51'1 0.8
2016-Jun-26 09:33N 33°04' W 117°52'1 0.8
2016-Jun-26 08:32N 33°03' W 117°51'1 1.1
2016-Jun-26 07:33N 33°03' W 117°51'1 0.7
2016-Jun-26 06:33N 33°02' W 117°50'1 1.4
2016-Jun-26 05:33N 33°01' W 117°50'1 0.5
2016-Jun-26 04:32N 33°00' W 117°50'1 0.7
2016-Jun-26 03:33N 32°60' W 117°49'2 2.2
2016-Jun-26 02:33N 32°57' W 117°48'1 1.4
2016-Jun-26 01:33N 32°56' W 117°48'0 0.1
2016-Jun-26 00:33N 32°56' W 117°48'0 0.5
2016-Jun-25 23:33N 32°56' W 117°48'0 0.3
2016-Jun-25 22:33N 32°55' W 117°47'0 0.4
2016-Jun-25 21:33N 32°56' W 117°48'2 1.5
2016-Jun-25 20:33N 32°54' W 117°47'1 0.5
2016-Jun-25 19:33N 32°55' W 117°47'1 1.0
2016-Jun-25 18:32N 32°54' W 117°47'0 0.3
2016-Jun-25 17:33N 32°53' W 117°47'1 1.2
2016-Jun-25 16:33N 32°52' W 117°47'2 2.2
2016-Jun-25 15:33N 32°50' W 117°47'5 4.7
2016-Jun-25 14:33N 32°46' W 117°44'4 4.4
2016-Jun-25 13:33N 32°42' W 117°42'0 0.4
2016-Jun-25 12:33N 32°42' W 117°42'7 6.7
2016-Jun-25 11:33N 32°48' W 117°45'7 7.0
2016-Jun-25 10:33N 32°55' W 117°50'7 7.0
2016-Jun-25 09:33N 33°01' W 117°54'11 5.0
2016-Jun-25 07:26N 33°10' W 117°59'1 0.6
2016-Jun-25 06:26N 33°10' W 117°58'3 3.8
2016-Jun-25 05:32N 33°13' W 117°59'3316.7
2016-Jun-25 03:33N 33°44' W 118°12'2 1.8
2016-Jun-25 02:33N 33°46' W 118°13'1 0.0
2016-Jun-23 14:33N 33°46' W 118°13'0 0.4
2016-Jun-23 13:33N 33°46' W 118°13'1413.4
2016-Jun-23 12:32N 33°34' W 118°06'1717.4
2016-Jun-23 11:33N 33°18' W 117°58'1211.5
2016-Jun-23 10:33N 33°07' W 117°54'2 2.2
2016-Jun-23 09:33N 33°06' W 117°52'1 1.0
2016-Jun-23 08:33N 33°05' W 117°52'1 1.0
2016-Jun-23 07:22N 33°04' W 117°51'2 0.9
2016-Jun-23 05:33N 33°02' W 117°50'1 1.2
2016-Jun-23 04:33N 33°01' W 117°49'0 0.5
2016-Jun-23 03:33N 33°01' W 117°49'1 1.5
2016-Jun-23 02:33N 33°00' W 117°48'2 2.2
2016-Jun-23 01:34N 32°58' W 117°46'0 0.2
2016-Jun-23 00:33N 32°58' W 117°46'1 0.7
2016-Jun-22 23:33N 32°57' W 117°46'1 0.7
2016-Jun-22 22:33N 32°57' W 117°46'1 0.6
2016-Jun-22 21:34N 32°57' W 117°45'1 0.5
2016-Jun-22 20:34N 32°56' W 117°44'2 1.6
2016-Jun-22 19:34N 32°55' W 117°43'1 0.9
2016-Jun-22 18:33N 32°56' W 117°44'0 0.4
2016-Jun-22 17:33N 32°55' W 117°44'2 1.7
2016-Jun-22 16:33N 32°57' W 117°45'1 1.2
2016-Jun-22 15:34N 32°58' W 117°45'1 1.2
2016-Jun-22 14:33N 32°59' W 117°45'1 1.5
2016-Jun-22 13:33N 32°59' W 117°47'1 1.0
2016-Jun-22 12:33N 32°59' W 117°48'1 0.5
2016-Jun-22 11:32N 32°59' W 117°48'1 1.0
2016-Jun-22 10:33N 32°60' W 117°49'1 0.6
2016-Jun-22 09:33N 32°59' W 117°50'0 0.5
2016-Jun-22 08:33N 32°59' W 117°50'1 0.5
2016-Jun-22 07:33N 32°59' W 117°50'1 1.2
2016-Jun-22 06:33N 32°60' W 117°51'4 3.8
2016-Jun-22 05:33N 33°03' W 117°53'4 4.2
2016-Jun-22 04:33N 33°07' W 117°55'2 1.8
2016-Jun-22 03:32N 33°09' W 117°55'1 0.7
2016-Jun-22 02:33N 33°09' W 117°54'1010.1
2016-Jun-22 01:33N 33°18' W 117°59'1817.6
2016-Jun-22 00:32N 33°35' W 118°05'1111.0
2016-Jun-21 23:33N 33°44' W 118°12'2 2.1
2016-Jun-21 22:34N 33°46' W 118°13'0 0.0
2016-Jun-21 21:34N 33°46' W 118°13'0 0.0
2016-Jun-21 20:34N 33°46' W 118°13'0 0.0
2016-Jun-21 19:34N 33°46' W 118°13'0 0.0
2016-Jun-21 18:34N 33°46' W 118°13'0 0.0
2016-Jun-21 17:34N 33°46' W 118°13'2 1.8
2016-Jun-21 16:34N 33°44' W 118°13'3 2.5
2016-Jun-21 15:33N 33°44' W 118°10'3 3.5
2016-Jun-21 14:34N 33°46' W 118°13'0 0.0
2016-Jun-21 13:32N 33°46' W 118°13'0 0.0
2016-Jun-21 12:32N 33°46' W 118°13'0 0.0
2016-Jun-21 11:32N 33°46' W 118°13'0 0.0
2016-Jun-21 10:32N 33°46' W 118°13'0 0.0
2016-Jun-21 09:32N 33°46' W 118°13'0 0.0
2016-Jun-21 08:32N 33°46' W 118°13'0 0.0
2016-Jun-21 07:32N 33°46' W 118°13'0 0.0
2016-Jun-21 06:32N 33°46' W 118°13'0 0.0
2016-Jun-21 04:32N 33°46' W 118°13'0 0.0
2016-Jun-21 03:32N 33°46' W 118°13'0 0.0
2016-Jun-21 02:32N 33°46' W 118°13'0 0.0
2016-Jun-21 01:32N 33°46' W 118°13'0 0.3
2016-Jun-21 00:33N 33°46' W 118°13'0 0.4
2016-Jun-20 23:33N 33°46' W 118°13'0 0.4
2016-Jun-20 22:34N 33°46' W 118°13'0 0.5
2016-Jun-20 21:33N 33°46' W 118°13'0 0.0
2016-Jun-20 20:33N 33°46' W 118°13'0 0.0
2016-Jun-20 19:33N 33°46' W 118°13'0 0.0
2016-Jun-20 18:33N 33°46' W 118°13'0 0.0
2016-Jun-20 17:33N 33°46' W 118°13'0 0.0
2016-Jun-20 16:33N 33°46' W 118°13'0 0.0
2016-Jun-20 15:33N 33°46' W 118°13'0 0.0
2016-Jun-20 14:33N 33°46' W 118°13'0 0.0
2016-Jun-20 13:33N 33°46' W 118°13'0 0.0
2016-Jun-20 12:33N 33°46' W 118°13'0 0.0
2016-Jun-20 11:33N 33°46' W 118°13'0 0.0
2016-Jun-20 10:33N 33°46' W 118°13'0 0.0
2016-Jun-20 09:33N 33°46' W 118°13'0 0.0
2016-Jun-20 08:34N 33°46' W 118°13'1 0.6
2016-Jun-20 07:34N 33°46' W 118°13'1313.3
2016-Jun-20 06:33N 33°34' W 118°06'1717.0
2016-Jun-20 05:33N 33°18' W 117°59'1514.8
2016-Jun-20 04:33N 33°04' W 117°52'1 0.9
2016-Jun-20 03:33N 33°04' W 117°51'3 2.6
2016-Jun-20 02:34N 33°02' W 117°50'1 1.3
2016-Jun-20 01:33N 33°00' W 117°50'3 2.9
2016-Jun-20 00:33N 33°00' W 117°47'0 0.3
2016-Jun-19 23:33N 32°60' W 117°46'0 0.4
2016-Jun-19 22:33N 32°60' W 117°47'1 1.4
2016-Jun-19 21:33N 32°59' W 117°45'1 1.0
2016-Jun-19 20:33N 32°59' W 117°44'1 1.4
2016-Jun-19 19:33N 32°58' W 117°46'2 2.3
2016-Jun-19 18:34N 32°58' W 117°43'1 1.2
2016-Jun-19 17:33N 32°58' W 117°45'1 0.9
2016-Jun-19 16:33N 32°58' W 117°46'2 1.9
2016-Jun-19 15:33N 32°56' W 117°45'2 2.1
2016-Jun-19 14:33N 32°58' W 117°47'1 1.2
2016-Jun-19 13:33N 32°56' W 117°47'3 2.6
2016-Jun-19 12:34N 32°57' W 117°50'1 0.6
2016-Jun-19 11:34N 32°57' W 117°49'2 1.6
2016-Jun-19 10:33N 32°58' W 117°51'2 2.3
2016-Jun-19 09:33N 32°57' W 117°49'3 2.8
2016-Jun-19 08:33N 32°58' W 117°51'0 0.5
2016-Jun-19 07:33N 32°58' W 117°51'3 3.1
2016-Jun-19 06:33N 33°01' W 117°53'  

Dump ship's entire track history